createdAt,value
2019-02-18T00:02:19.265Z,73.13
2019-02-18T00:04:47.665Z,76.93
2019-02-18T00:07:16.058Z,86.77
2019-02-18T00:09:44.694Z,74.00
2019-02-18T00:12:13.170Z,86.57
2019-02-18T00:14:41.568Z,88.90
2019-02-18T00:17:10.047Z,88.53
2019-02-18T00:19:38.439Z,91.03
2019-02-18T00:22:07.062Z,89.17
2019-02-18T00:24:36.461Z,84.47
2019-02-18T00:27:04.910Z,85.63
2019-02-18T00:29:33.379Z,83.30
2019-02-18T00:32:01.999Z,96.87
2019-02-18T00:34:30.494Z,94.17
2019-02-18T00:36:58.870Z,87.40
2019-02-18T00:39:27.335Z,80.47
2019-02-18T00:41:55.732Z,77.20
2019-02-18T00:44:24.140Z,83.33
2019-02-18T00:46:52.692Z,78.60
2019-02-18T00:49:21.095Z,76.50
2019-02-18T00:51:49.502Z,74.10
2019-02-18T00:54:17.979Z,73.87
2019-02-18T00:56:46.397Z,80.53
2019-02-18T00:59:14.776Z,81.13
2019-02-18T01:01:43.223Z,77.10
2019-02-18T01:04:11.618Z,75.17
2019-02-18T01:06:40.014Z,74.00
2019-02-18T01:09:09.824Z,68.67
2019-02-18T01:11:38.216Z,66.17
2019-02-18T01:14:06.609Z,68.70
2019-02-18T01:16:35.087Z,63.57
2019-02-18T01:19:03.514Z,62.13
2019-02-18T01:21:31.916Z,57.33
2019-02-18T01:24:00.361Z,60.10
2019-02-18T01:26:28.823Z,57.43
2019-02-18T01:28:57.213Z,56.43
2019-02-18T01:31:25.653Z,53.77
2019-02-18T01:33:54.049Z,54.63
2019-02-18T01:36:23.141Z,53.07
2019-02-18T01:38:51.872Z,54.27
2019-02-18T01:41:20.361Z,51.80
2019-02-18T01:43:48.760Z,54.10
2019-02-18T01:46:17.266Z,52.53
2019-02-18T01:48:45.663Z,50.30
2019-02-18T01:51:14.080Z,54.80
2019-02-18T01:53:42.599Z,54.70
2019-02-18T01:56:11.065Z,50.37
2019-02-18T01:58:39.478Z,52.77
2019-02-18T02:01:07.976Z,51.47
2019-02-18T02:03:36.370Z,50.83
2019-02-18T02:06:04.775Z,48.73
2019-02-18T02:08:33.216Z,48.33
2019-02-18T02:11:01.615Z,52.77
2019-02-18T02:13:34.792Z,50.33
2019-02-18T02:16:04.854Z,48.60
2019-02-18T02:18:33.250Z,50.03
2019-02-18T02:21:01.675Z,50.53
2019-02-18T02:23:30.143Z,53.50
2019-02-18T02:25:58.615Z,47.87
2019-02-18T02:28:27.008Z,48.47
2019-02-18T02:30:55.470Z,50.77
2019-02-18T02:33:23.866Z,49.67
2019-02-18T02:35:52.269Z,49.90
2019-02-18T02:38:20.794Z,50.73
2019-02-18T02:40:49.187Z,50.17
2019-02-18T02:43:17.579Z,50.27
2019-02-18T02:45:46.050Z,48.93
2019-02-18T02:48:14.471Z,51.30
2019-02-18T02:50:42.946Z,49.67
2019-02-18T02:53:11.391Z,49.87
2019-02-18T02:55:39.786Z,49.50
2019-02-18T02:58:08.173Z,48.00
2019-02-18T03:00:36.628Z,47.10
2019-02-18T03:03:05.026Z,49.97
2019-02-18T03:05:33.427Z,47.47
2019-02-18T03:08:02.040Z,50.37
2019-02-18T03:10:30.524Z,50.70
2019-02-18T03:12:58.966Z,48.53
2019-02-18T03:15:27.411Z,46.40
2019-02-18T03:17:55.812Z,50.73
2019-02-18T03:20:24.206Z,44.83
2019-02-18T03:22:52.827Z,49.27
2019-02-18T03:25:23.430Z,47.33
2019-02-18T03:27:55.372Z,47.00
2019-02-18T03:30:36.309Z,46.10
2019-02-18T03:33:10.551Z,44.70
2019-02-18T03:35:38.948Z,49.10
2019-02-18T03:38:07.396Z,47.00
2019-02-18T03:40:35.796Z,47.93
2019-02-18T03:43:04.189Z,47.07
2019-02-18T03:45:32.634Z,46.70
2019-02-18T03:48:01.078Z,47.53
2019-02-18T03:50:29.471Z,47.30
2019-02-18T03:52:58.021Z,47.63
2019-02-18T03:55:26.493Z,46.30
2019-02-18T03:57:54.978Z,47.80
2019-02-18T04:00:23.433Z,48.97
2019-02-18T04:02:51.913Z,50.07
2019-02-18T04:05:20.316Z,49.33
2019-02-18T04:07:48.756Z,50.60
2019-02-18T04:10:17.149Z,50.23
2019-02-18T04:12:45.543Z,47.43
2019-02-18T04:15:15.926Z,47.80
2019-02-18T04:17:44.407Z,51.80
2019-02-18T04:20:13.075Z,47.87
2019-02-18T04:22:41.541Z,47.70
2019-02-18T04:25:09.914Z,49.53
2019-02-18T04:27:38.318Z,48.33
2019-02-18T04:30:09.601Z,49.90
2019-02-18T04:32:38.008Z,49.37
2019-02-18T04:35:08.052Z,51.57
2019-02-18T04:37:36.751Z,51.10
2019-02-18T04:40:09.270Z,47.60
2019-02-18T04:42:37.668Z,49.70
2019-02-18T04:45:08.656Z,46.33
2019-02-18T04:47:37.054Z,49.40
2019-02-18T04:50:07.187Z,49.43
2019-02-18T04:52:35.706Z,48.07
2019-02-18T04:55:06.300Z,46.77
2019-02-18T04:57:34.706Z,47.03
2019-02-18T05:00:03.190Z,47.77
2019-02-18T05:02:31.581Z,45.67
2019-02-18T05:04:59.985Z,46.90
2019-02-18T05:07:28.457Z,43.47
2019-02-18T05:09:56.847Z,45.97
2019-02-18T05:12:25.250Z,44.67
2019-02-18T05:14:53.694Z,46.10
2019-02-18T05:17:22.090Z,45.50
2019-02-18T05:19:50.511Z,47.47
2019-02-18T05:22:18.986Z,44.90
2019-02-18T05:24:47.383Z,44.57
2019-02-18T05:27:15.844Z,47.20
2019-02-18T05:29:44.293Z,43.80
2019-02-18T05:32:12.686Z,44.40
2019-02-18T05:34:41.091Z,47.17
2019-02-18T05:37:09.601Z,41.07
2019-02-18T05:39:38.179Z,42.90
2019-02-18T05:42:06.630Z,40.73
2019-02-18T05:44:35.185Z,44.63
2019-02-18T05:47:03.570Z,42.90
2019-02-18T05:49:31.968Z,47.40
2019-02-18T05:52:00.418Z,41.13
2019-02-18T05:54:28.817Z,42.20
2019-02-18T05:56:57.210Z,40.60
2019-02-18T05:59:25.697Z,41.03
2019-02-18T06:01:54.055Z,43.07
2019-02-18T06:04:22.453Z,42.40
2019-02-18T06:06:50.973Z,43.60
2019-02-18T06:09:28.930Z,43.43
2019-02-18T06:11:50.573Z,42.40
2019-02-18T06:14:19.135Z,44.00
2019-02-18T06:16:47.537Z,48.53
2019-02-18T06:19:15.937Z,43.73
2019-02-18T06:21:44.389Z,46.63
2019-02-18T06:24:12.787Z,46.10
2019-02-18T06:26:41.203Z,50.40
2019-02-18T06:29:09.757Z,47.40
2019-02-18T06:31:38.296Z,48.07
2019-02-18T06:34:06.696Z,47.07
2019-02-18T06:36:35.208Z,45.20
2019-02-18T06:39:05.073Z,46.30
2019-02-18T06:41:33.465Z,46.37
2019-02-18T06:44:01.900Z,45.80
2019-02-18T06:46:31.935Z,46.70
2019-02-18T06:49:01.978Z,46.70
2019-02-18T06:51:30.550Z,47.37
2019-02-18T06:53:58.947Z,45.77
2019-02-18T06:56:28.986Z,47.23
2019-02-18T06:58:59.083Z,43.40
2019-02-18T07:01:35.449Z,51.17
2019-02-18T07:04:11.756Z,50.20
2019-02-18T07:06:41.792Z,47.83
2019-02-18T07:09:30.000Z,48.97
2019-02-18T07:12:00.117Z,49.20
2019-02-18T07:14:28.560Z,51.73
2019-02-18T07:16:57.065Z,49.97
2019-02-18T07:19:25.477Z,50.50
2019-02-18T07:21:53.918Z,47.23
2019-02-18T07:24:22.363Z,48.47
2019-02-18T07:26:50.761Z,45.63
2019-02-18T07:29:19.162Z,45.70
2019-02-18T07:31:47.605Z,51.30
2019-02-18T07:34:16.029Z,44.80
2019-02-18T07:36:44.630Z,51.00
2019-02-18T07:39:13.096Z,45.93
2019-02-18T07:41:41.492Z,49.80
2019-02-18T07:44:09.893Z,51.47
2019-02-18T07:46:38.440Z,49.73
2019-02-18T07:49:06.835Z,48.77
2019-02-18T07:51:35.236Z,48.07
2019-02-18T07:54:03.690Z,51.10
2019-02-18T07:56:32.079Z,48.53
2019-02-18T07:59:00.482Z,49.30
2019-02-18T08:01:28.997Z,47.40
2019-02-18T08:03:57.390Z,51.97
2019-02-18T08:06:25.788Z,49.80
2019-02-18T08:08:54.362Z,56.03
2019-02-18T08:11:22.752Z,48.80
2019-02-18T08:13:51.162Z,49.50
2019-02-18T08:16:19.662Z,54.97
2019-02-18T08:18:48.124Z,50.70
2019-02-18T08:21:16.560Z,50.10
2019-02-18T08:23:45.004Z,51.57
2019-02-18T08:26:13.408Z,47.43
2019-02-18T08:28:41.872Z,50.20
2019-02-18T08:31:10.479Z,47.07
2019-02-18T08:33:38.871Z,50.17
2019-02-18T08:36:07.277Z,49.50
2019-02-18T08:38:35.732Z,51.00
2019-02-18T08:41:04.136Z,46.97
2019-02-18T08:43:32.708Z,48.73
2019-02-18T08:46:03.596Z,49.00
2019-02-18T08:48:32.015Z,48.27
2019-02-18T08:51:00.480Z,45.90
2019-02-18T08:53:29.063Z,47.13
2019-02-18T08:55:57.482Z,48.50
2019-02-18T08:58:25.874Z,46.17
2019-02-18T09:01:02.294Z,44.60
2019-02-18T09:03:24.442Z,44.30
2019-02-18T09:05:52.836Z,51.50
2019-02-18T09:08:22.289Z,46.97
2019-02-18T09:10:50.682Z,45.37
2019-02-18T09:13:19.160Z,46.90
2019-02-18T09:15:47.744Z,39.87
2019-02-18T09:18:16.132Z,46.07
2019-02-18T09:20:44.525Z,47.47
2019-02-18T09:23:14.615Z,45.60
2019-02-18T09:25:47.080Z,45.40
2019-02-18T09:28:15.484Z,44.47
2019-02-18T09:30:45.703Z,40.63
2019-02-18T09:33:14.089Z,45.63
2019-02-18T09:35:42.481Z,39.80
2019-02-18T09:38:11.042Z,40.83
2019-02-18T09:40:44.628Z,40.47
2019-02-18T09:43:09.565Z,38.87
2019-02-18T09:45:38.017Z,39.10
2019-02-18T09:48:06.426Z,36.70
2019-02-18T09:50:34.825Z,36.27
2019-02-18T09:53:03.278Z,36.00
2019-02-18T09:55:31.751Z,38.33
2019-02-18T09:58:00.145Z,35.50
2019-02-18T10:00:28.701Z,35.57
2019-02-18T10:02:57.145Z,37.30
2019-02-18T10:05:25.543Z,34.97
2019-02-18T10:07:53.985Z,34.03
2019-02-18T10:10:22.383Z,33.27
2019-02-18T10:12:50.850Z,31.87
2019-02-18T10:15:19.314Z,33.17
2019-02-18T10:17:47.701Z,34.83
2019-02-18T10:20:16.234Z,34.73
2019-02-18T10:22:44.799Z,36.20
2019-02-18T10:25:13.937Z,31.87
2019-02-18T10:27:42.345Z,31.37
2019-02-18T10:30:12.282Z,29.90
2019-02-18T10:32:40.681Z,30.43
2019-02-18T10:35:11.326Z,31.00
2019-02-18T10:37:39.900Z,31.43
2019-02-18T10:40:09.836Z,30.80
2019-02-18T10:42:38.224Z,29.30
2019-02-18T10:45:11.916Z,28.97
2019-02-18T10:47:40.316Z,29.30
2019-02-18T10:50:10.550Z,30.13
2019-02-18T10:52:38.999Z,27.37
2019-02-18T10:55:09.446Z,26.23
2019-02-18T10:57:38.317Z,28.77
2019-02-18T11:00:15.101Z,28.43
2019-02-18T11:02:43.514Z,26.90
2019-02-18T11:05:11.932Z,26.53
2019-02-18T11:07:41.230Z,26.50
2019-02-18T11:10:16.887Z,24.77
2019-02-18T11:12:47.476Z,23.70
2019-02-18T11:15:15.820Z,25.43
2019-02-18T11:17:46.351Z,24.30
2019-02-18T11:20:14.817Z,22.57
2019-02-18T11:22:43.254Z,23.40
2019-02-18T11:25:13.169Z,24.27
2019-02-18T11:27:41.551Z,21.77
2019-02-18T11:30:18.982Z,21.53
2019-02-18T11:32:47.376Z,22.50
2019-02-18T11:35:15.793Z,19.57
2019-02-18T11:37:44.222Z,20.93
2019-02-18T11:40:16.971Z,19.77
2019-02-18T11:42:45.369Z,18.40
2019-02-18T11:45:15.057Z,17.93
2019-02-18T11:47:43.448Z,18.77
2019-02-18T11:50:16.070Z,17.47
2019-02-18T11:52:44.619Z,18.77
2019-02-18T11:55:13.756Z,17.67
2019-02-18T11:57:42.536Z,17.57
2019-02-18T12:00:15.813Z,17.03
2019-02-18T12:02:44.202Z,17.07
2019-02-18T12:05:12.599Z,16.70
2019-02-18T12:07:41.042Z,16.17
2019-02-18T12:10:13.893Z,15.60
2019-02-18T12:12:42.584Z,15.27
2019-02-18T12:15:13.750Z,14.73
2019-02-18T12:17:42.142Z,15.33
2019-02-18T12:20:12.469Z,15.27
2019-02-18T12:22:40.919Z,14.73
2019-02-18T12:25:12.524Z,16.07
2019-02-18T12:27:41.411Z,15.37
2019-02-18T12:30:12.865Z,14.20
2019-02-18T12:32:41.329Z,15.90
2019-02-18T12:35:11.371Z,14.80
2019-02-18T12:37:39.849Z,14.40
2019-02-18T12:40:14.795Z,14.47
2019-02-18T12:42:43.273Z,15.70
2019-02-18T12:45:14.653Z,12.57
2019-02-18T12:47:43.061Z,13.33
2019-02-18T12:50:12.208Z,20.77
2019-02-18T12:52:40.683Z,14.67
2019-02-18T12:55:10.567Z,15.27
2019-02-18T12:57:39.254Z,18.53
2019-02-18T13:00:17.858Z,17.33
2019-02-18T13:02:46.469Z,17.03
2019-02-18T13:05:15.173Z,14.17
2019-02-18T13:07:43.808Z,16.80
2019-02-18T13:10:12.641Z,16.43
2019-02-18T13:12:41.438Z,15.53
2019-02-18T13:15:15.744Z,17.67
2019-02-18T13:17:44.309Z,14.13
2019-02-18T13:20:12.712Z,16.13
2019-02-18T13:22:41.238Z,15.80
2019-02-18T13:25:10.472Z,15.73
2019-02-18T13:27:38.868Z,15.67
2019-02-18T13:30:13.715Z,14.23
2019-02-18T13:32:41.931Z,15.50
2019-02-18T13:35:10.330Z,15.13
2019-02-18T13:37:38.792Z,15.33
2019-02-18T13:40:07.831Z,15.53
2019-02-18T13:42:36.227Z,14.80
2019-02-18T13:45:06.804Z,15.53
2019-02-18T13:47:35.218Z,15.50
2019-02-18T13:50:04.525Z,15.30
2019-02-18T13:52:32.963Z,14.83
2019-02-18T13:55:02.020Z,14.17
2019-02-18T13:57:30.738Z,14.10
2019-02-18T13:59:59.574Z,13.47
2019-02-18T14:02:27.973Z,14.23
2019-02-18T14:04:56.571Z,13.53
2019-02-18T14:07:25.010Z,14.80
2019-02-18T14:09:53.416Z,14.20
2019-02-18T14:12:21.818Z,14.23
2019-02-18T14:14:50.395Z,13.83
2019-02-18T14:17:18.810Z,13.80
2019-02-18T14:19:47.210Z,12.97
2019-02-18T14:22:15.951Z,15.20
2019-02-18T14:24:44.659Z,11.90
2019-02-18T14:27:13.094Z,12.63
2019-02-18T14:29:41.535Z,13.17
2019-02-18T14:32:10.212Z,13.07
2019-02-18T14:34:38.601Z,12.57
2019-02-18T14:37:07.043Z,12.60
2019-02-18T14:39:35.468Z,13.23
2019-02-18T14:42:03.960Z,12.90
2019-02-18T14:44:32.440Z,13.30
2019-02-18T14:47:01.327Z,12.50
2019-02-18T14:49:29.729Z,12.87
2019-02-18T14:51:58.474Z,13.80
2019-02-18T14:54:26.984Z,12.23
2019-02-18T14:56:55.373Z,13.20
2019-02-18T14:59:23.836Z,11.50
2019-02-18T15:01:52.233Z,12.83
2019-02-18T15:04:20.692Z,12.17
2019-02-18T15:06:49.218Z,13.43
2019-02-18T15:09:17.687Z,14.13
2019-02-18T15:11:46.159Z,14.17
2019-02-18T15:14:14.598Z,12.20
2019-02-18T15:16:42.989Z,12.07
2019-02-18T15:19:11.664Z,12.50
2019-02-18T15:21:40.102Z,13.77
2019-02-18T15:24:08.499Z,12.47
2019-02-18T15:26:36.895Z,11.73
2019-02-18T15:29:05.547Z,11.60
2019-02-18T15:31:34.035Z,12.10
2019-02-18T15:34:02.440Z,16.87
2019-02-18T15:36:30.981Z,13.53
2019-02-18T15:38:59.456Z,11.37
2019-02-18T15:41:28.093Z,11.57
2019-02-18T15:43:56.535Z,13.63
2019-02-18T15:46:24.937Z,12.67
2019-02-18T15:48:53.404Z,11.57
2019-02-18T15:51:22.384Z,11.80
2019-02-18T15:53:50.795Z,13.37
2019-02-18T15:56:19.451Z,13.10
2019-02-18T15:58:47.890Z,10.93
2019-02-18T16:01:16.295Z,12.77
2019-02-18T16:03:44.688Z,11.37
2019-02-18T16:06:13.516Z,13.43
2019-02-18T16:08:41.917Z,10.80
2019-02-18T16:11:10.317Z,12.60
2019-02-18T16:13:38.914Z,11.50
2019-02-18T16:16:07.355Z,12.20
2019-02-18T16:18:35.752Z,11.33
2019-02-18T16:21:04.357Z,12.67
2019-02-18T16:23:32.933Z,17.77
2019-02-18T16:26:01.332Z,25.47
2019-02-18T16:28:29.777Z,16.47
2019-02-18T16:30:58.247Z,21.33
2019-02-18T16:33:26.651Z,18.60
2019-02-18T16:35:55.106Z,18.47
2019-02-18T16:38:23.568Z,18.43
2019-02-18T16:40:51.977Z,20.67
2019-02-18T16:43:20.887Z,21.67
2019-02-18T16:45:49.288Z,23.23
2019-02-18T16:48:18.168Z,19.60
2019-02-18T16:50:46.707Z,24.40
2019-02-18T16:53:15.101Z,23.67
2019-02-18T16:55:43.507Z,24.10
2019-02-18T16:58:11.995Z,27.53
2019-02-18T17:00:40.394Z,25.53
2019-02-18T17:03:08.797Z,25.70
2019-02-18T17:05:37.327Z,23.87
2019-02-18T17:08:05.790Z,27.73
2019-02-18T17:10:34.191Z,25.27
2019-02-18T17:13:08.253Z,27.27
2019-02-18T17:15:32.855Z,23.80
2019-02-18T17:18:01.330Z,25.73
2019-02-18T17:20:29.781Z,23.47
2019-02-18T17:22:58.177Z,26.53
2019-02-18T17:25:27.288Z,23.27
2019-02-18T17:27:55.937Z,24.07
2019-02-18T17:30:24.463Z,22.57
2019-02-18T17:32:52.866Z,24.03
2019-02-18T17:35:21.348Z,25.10
2019-02-18T17:37:49.742Z,25.93
2019-02-18T17:40:18.151Z,24.97
2019-02-18T17:42:46.626Z,21.47
2019-02-18T17:45:17.526Z,21.60
2019-02-18T17:47:45.924Z,23.53
2019-02-18T17:50:15.925Z,22.00
2019-02-18T17:52:44.386Z,21.33
2019-02-18T17:55:16.812Z,23.10
2019-02-18T17:57:45.246Z,26.77
2019-02-18T18:00:16.916Z,21.97
2019-02-18T18:02:45.387Z,22.07
2019-02-18T18:05:13.829Z,23.03
2019-02-18T18:07:42.776Z,22.10
2019-02-18T18:10:12.521Z,21.70
2019-02-18T18:12:41.053Z,19.63
2019-02-18T18:15:17.287Z,25.43
2019-02-18T18:17:45.688Z,21.87
2019-02-18T18:20:14.897Z,23.03
2019-02-18T18:22:43.358Z,21.33
2019-02-18T18:25:13.478Z,22.30
2019-02-18T18:27:42.070Z,19.10
2019-02-18T18:30:12.813Z,19.13
2019-02-18T18:32:41.299Z,18.93
2019-02-18T18:35:11.739Z,21.20
2019-02-18T18:37:40.130Z,21.23
2019-02-18T18:40:12.020Z,19.80
2019-02-18T18:42:40.470Z,18.80
2019-02-18T18:45:11.175Z,19.43
2019-02-18T18:47:39.583Z,22.37
2019-02-18T18:50:22.258Z,18.10
2019-02-18T18:52:50.656Z,18.70
2019-02-18T18:55:19.055Z,26.03
2019-02-18T18:57:47.502Z,21.13
2019-02-18T19:00:25.204Z,17.90
2019-02-18T19:02:53.629Z,19.70
2019-02-18T19:05:22.452Z,19.17
2019-02-18T19:07:50.911Z,20.40
2019-02-18T19:10:19.445Z,21.60
2019-02-18T19:12:47.925Z,16.77
2019-02-18T19:15:19.753Z,19.00
2019-02-18T19:17:48.156Z,16.77
2019-02-18T19:20:16.614Z,20.17
2019-02-18T19:22:45.118Z,18.77
2019-02-18T19:25:13.685Z,17.50
2019-02-18T19:27:42.273Z,16.70
2019-02-18T19:30:22.219Z,17.30
2019-02-18T19:32:50.951Z,21.13
2019-02-18T19:35:19.358Z,18.80
2019-02-18T19:37:47.762Z,17.37
2019-02-18T19:40:16.224Z,16.87
2019-02-18T19:42:44.613Z,17.40
2019-02-18T19:45:18.063Z,18.20
2019-02-18T19:47:46.730Z,15.13
2019-02-18T19:50:15.131Z,16.07
2019-02-18T19:52:43.525Z,15.53
2019-02-18T19:55:13.497Z,20.20
2019-02-18T19:57:42.000Z,20.07
2019-02-18T20:00:13.398Z,17.33
2019-02-18T20:02:41.866Z,17.93
2019-02-18T20:05:10.630Z,24.40
2019-02-18T20:07:39.077Z,34.07
2019-02-18T20:10:10.223Z,23.40
2019-02-18T20:12:38.892Z,21.50
2019-02-18T20:15:10.412Z,26.23
2019-02-18T20:17:38.853Z,31.87
2019-02-18T20:20:11.670Z,35.67
2019-02-18T20:22:40.057Z,19.63
2019-02-18T20:25:09.449Z,21.80
2019-02-18T20:27:37.893Z,23.87
2019-02-18T20:30:17.337Z,17.27
2019-02-18T20:32:45.732Z,17.77
2019-02-18T20:35:14.124Z,12.20
2019-02-18T20:37:42.642Z,11.57
2019-02-18T20:40:11.674Z,18.83
2019-02-18T20:42:40.445Z,16.00
2019-02-18T20:45:15.112Z,14.03
2019-02-18T20:47:43.619Z,12.50
2019-02-18T20:50:14.298Z,9.20
2019-02-18T20:52:44.398Z,14.50
2019-02-18T20:55:14.249Z,12.87
2019-02-18T20:57:42.705Z,11.97
2019-02-18T21:00:17.613Z,14.13
2019-02-18T21:02:46.011Z,11.80
2019-02-18T21:05:14.404Z,13.43
2019-02-18T21:07:42.835Z,11.30
2019-02-18T21:10:14.870Z,10.73
2019-02-18T21:12:43.368Z,8.87
2019-02-18T21:15:11.836Z,12.07
2019-02-18T21:17:40.231Z,8.73
2019-02-18T21:20:10.650Z,8.00
2019-02-18T21:22:39.084Z,8.87
2019-02-18T21:25:09.460Z,6.90
2019-02-18T21:27:37.864Z,7.87
2019-02-18T21:30:09.821Z,10.20
2019-02-18T21:32:39.917Z,13.37
2019-02-18T21:35:08.657Z,7.70
2019-02-18T21:37:37.432Z,11.63
2019-02-18T21:40:08.355Z,7.73
2019-02-18T21:42:36.772Z,7.07
2019-02-18T21:45:07.780Z,6.20
2019-02-18T21:47:36.165Z,6.87
2019-02-18T21:50:06.395Z,7.53
2019-02-18T21:52:34.828Z,6.37
2019-02-18T21:55:03.282Z,7.13
2019-02-18T21:57:31.666Z,8.47
2019-02-18T22:00:00.263Z,9.10
2019-02-18T22:02:28.709Z,6.43
2019-02-18T22:04:57.134Z,6.80
2019-02-18T22:07:25.749Z,6.30
2019-02-18T22:09:54.415Z,6.67
2019-02-18T22:12:22.803Z,5.93
2019-02-18T22:14:51.257Z,7.23
2019-02-18T22:17:19.728Z,5.70
2019-02-18T22:19:48.123Z,8.57
2019-02-18T22:22:16.595Z,6.57
2019-02-18T22:24:44.991Z,6.27
2019-02-18T22:27:13.665Z,5.60
2019-02-18T22:29:42.137Z,6.30
2019-02-18T22:32:10.524Z,6.20
2019-02-18T22:34:38.914Z,5.97
2019-02-18T22:37:07.353Z,5.90
2019-02-18T22:39:35.742Z,6.33
2019-02-18T22:42:04.179Z,6.00
2019-02-18T22:44:32.893Z,5.37
2019-02-18T22:47:01.287Z,6.67
2019-02-18T22:49:29.674Z,6.17
2019-02-18T22:51:58.201Z,5.90
2019-02-18T22:54:26.596Z,6.97
2019-02-18T22:56:54.986Z,5.90
2019-02-18T22:59:23.420Z,5.80
2019-02-18T23:01:51.810Z,5.90
2019-02-18T23:04:20.203Z,5.50
2019-02-18T23:06:48.638Z,5.23
2019-02-18T23:09:17.437Z,5.13
2019-02-18T23:11:45.829Z,5.93
2019-02-18T23:14:14.295Z,5.23
2019-02-18T23:16:43.087Z,6.20
2019-02-18T23:19:11.470Z,5.00
2019-02-18T23:21:40.553Z,7.07
2019-02-18T23:24:09.071Z,7.10
2019-02-18T23:26:37.523Z,6.63
2019-02-18T23:29:05.961Z,5.90
2019-02-18T23:31:34.359Z,5.70
2019-02-18T23:34:02.924Z,5.87
2019-02-18T23:36:31.582Z,5.87
2019-02-18T23:39:00.014Z,5.77
2019-02-18T23:41:28.399Z,6.50
2019-02-18T23:43:56.847Z,7.00
2019-02-18T23:46:25.306Z,5.27
2019-02-18T23:48:53.697Z,6.63
2019-02-18T23:51:22.167Z,4.97
2019-02-18T23:53:50.515Z,6.07
2019-02-18T23:56:18.898Z,9.70
2019-02-18T23:58:47.395Z,5.00
